sensor_id;sensor_type;location;lat;lon;timestamp;temperature;humidity
16441;DHT22;8330;-33.858;151.184;2023-01-15T00:01:44;27.50;99.90
16441;DHT22;8330;-33.858;151.184;2023-01-15T00:04:15;27.60;99.90
16441;DHT22;8330;-33.858;151.184;2023-01-15T00:06:49;27.70;99.90
16441;DHT22;8330;-33.858;151.184;2023-01-15T00:09:21;27.70;99.90
16441;DHT22;8330;-33.858;151.184;2023-01-15T00:11:52;27.80;99.90
16441;DHT22;8330;-33.858;151.184;2023-01-15T00:14:23;27.80;99.90
16441;DHT22;8330;-33.858;151.184;2023-01-15T00:16:54;27.90;99.90
16441;DHT22;8330;-33.858;151.184;2023-01-15T00:19:26;27.90;99.90
16441;DHT22;8330;-33.858;151.184;2023-01-15T00:21:59;28.00;99.90
16441;DHT22;8330;-33.858;151.184;2023-01-15T00:24:30;28.00;99.90
16441;DHT22;8330;-33.858;151.184;2023-01-15T00:27:17;28.10;99.90
16441;DHT22;8330;-33.858;151.184;2023-01-15T00:30:04;27.90;99.90
16441;DHT22;8330;-33.858;151.184;2023-01-15T00:32:37;27.90;99.90
16441;DHT22;8330;-33.858;151.184;2023-01-15T00:35:12;27.90;99.90
16441;DHT22;8330;-33.858;151.184;2023-01-15T00:37:53;27.90;99.90
16441;DHT22;8330;-33.858;151.184;2023-01-15T00:40:25;27.90;99.90
16441;DHT22;8330;-33.858;151.184;2023-01-15T00:42:56;27.90;99.90
16441;DHT22;8330;-33.858;151.184;2023-01-15T00:45:27;27.90;99.90
16441;DHT22;8330;-33.858;151.184;2023-01-15T00:47:58;27.80;99.90
16441;DHT22;8330;-33.858;151.184;2023-01-15T00:50:29;27.90;99.90
16441;DHT22;8330;-33.858;151.184;2023-01-15T00:53:02;28.00;99.90
16441;DHT22;8330;-33.858;151.184;2023-01-15T00:55:33;28.10;99.90
16441;DHT22;8330;-33.858;151.184;2023-01-15T00:58:04;28.10;99.90
16441;DHT22;8330;-33.858;151.184;2023-01-15T01:00:35;28.20;99.90
16441;DHT22;8330;-33.858;151.184;2023-01-15T01:03:07;28.20;99.90
16441;DHT22;8330;-33.858;151.184;2023-01-15T01:05:38;28.20;99.90
16441;DHT22;8330;-33.858;151.184;2023-01-15T01:08:11;28.10;99.90
16441;DHT22;8330;-33.858;151.184;2023-01-15T01:10:43;28.00;99.90
16441;DHT22;8330;-33.858;151.184;2023-01-15T01:13:14;28.00;99.90
16441;DHT22;8330;-33.858;151.184;2023-01-15T01:15:45;28.00;99.90
16441;DHT22;8330;-33.858;151.184;2023-01-15T01:18:16;28.10;99.90
16441;DHT22;8330;-33.858;151.184;2023-01-15T01:20:47;28.00;99.90
16441;DHT22;8330;-33.858;151.184;2023-01-15T01:23:20;28.00;99.90
16441;DHT22;8330;-33.858;151.184;2023-01-15T01:25:53;28.00;99.90
16441;DHT22;8330;-33.858;151.184;2023-01-15T01:28:24;27.90;99.90
16441;DHT22;8330;-33.858;151.184;2023-01-15T01:30:55;28.00;99.90
16441;DHT22;8330;-33.858;151.184;2023-01-15T01:33:26;28.00;99.90
16441;DHT22;8330;-33.858;151.184;2023-01-15T01:35:57;28.00;99.90
16441;DHT22;8330;-33.858;151.184;2023-01-15T01:38:30;28.00;99.90
16441;DHT22;8330;-33.858;151.184;2023-01-15T01:41:00;28.10;99.90
16441;DHT22;8330;-33.858;151.184;2023-01-15T01:43:50;28.10;99.90
16441;DHT22;8330;-33.858;151.184;2023-01-15T01:46:21;28.10;99.90
16441;DHT22;8330;-33.858;151.184;2023-01-15T01:48:54;28.00;99.90
16441;DHT22;8330;-33.858;151.184;2023-01-15T01:51:28;28.00;99.90
16441;DHT22;8330;-33.858;151.184;2023-01-15T01:54:05;28.00;99.90
16441;DHT22;8330;-33.858;151.184;2023-01-15T01:56:37;28.00;99.90
16441;DHT22;8330;-33.858;151.184;2023-01-15T01:59:09;28.10;99.90
16441;DHT22;8330;-33.858;151.184;2023-01-15T02:01:41;28.10;99.90
16441;DHT22;8330;-33.858;151.184;2023-01-15T02:04:12;28.20;99.90
16441;DHT22;8330;-33.858;151.184;2023-01-15T02:06:45;28.20;99.90
16441;DHT22;8330;-33.858;151.184;2023-01-15T02:09:18;28.20;99.90
16441;DHT22;8330;-33.858;151.184;2023-01-15T02:11:50;28.20;99.90
16441;DHT22;8330;-33.858;151.184;2023-01-15T02:14:27;28.10;99.90
16441;DHT22;8330;-33.858;151.184;2023-01-15T02:17:06;28.20;99.90
16441;DHT22;8330;-33.858;151.184;2023-01-15T02:19:46;28.20;99.90
16441;DHT22;8330;-33.858;151.184;2023-01-15T02:22:27;28.20;99.90
16441;DHT22;8330;-33.858;151.184;2023-01-15T02:25:09;28.20;99.90
16441;DHT22;8330;-33.858;151.184;2023-01-15T02:27:46;28.00;99.90
16441;DHT22;8330;-33.858;151.184;2023-01-15T02:30:23;27.80;99.90
16441;DHT22;8330;-33.858;151.184;2023-01-15T02:32:58;27.70;99.90
16441;DHT22;8330;-33.858;151.184;2023-01-15T02:35:37;27.70;99.90
16441;DHT22;8330;-33.858;151.184;2023-01-15T02:38:12;27.70;99.90
16441;DHT22;8330;-33.858;151.184;2023-01-15T02:40:46;27.70;99.90
16441;DHT22;8330;-33.858;151.184;2023-01-15T02:43:28;27.80;99.90
16441;DHT22;8330;-33.858;151.184;2023-01-15T02:46:04;27.90;99.90
16441;DHT22;8330;-33.858;151.184;2023-01-15T02:48:38;27.90;99.90
16441;DHT22;8330;-33.858;151.184;2023-01-15T02:51:14;27.90;99.90
16441;DHT22;8330;-33.858;151.184;2023-01-15T02:53:47;28.00;99.90
16441;DHT22;8330;-33.858;151.184;2023-01-15T02:56:20;28.00;99.90
16441;DHT22;8330;-33.858;151.184;2023-01-15T02:58:56;28.00;99.90
16441;DHT22;8330;-33.858;151.184;2023-01-15T03:01:30;28.00;99.90
16441;DHT22;8330;-33.858;151.184;2023-01-15T03:04:06;28.00;99.90
16441;DHT22;8330;-33.858;151.184;2023-01-15T03:06:44;28.10;99.90
16441;DHT22;8330;-33.858;151.184;2023-01-15T03:09:16;28.10;99.90
16441;DHT22;8330;-33.858;151.184;2023-01-15T03:11:52;28.10;99.90
16441;DHT22;8330;-33.858;151.184;2023-01-15T03:14:35;28.10;99.90
16441;DHT22;8330;-33.858;151.184;2023-01-15T03:17:14;28.20;99.90
16441;DHT22;8330;-33.858;151.184;2023-01-15T03:19:49;28.30;99.90
16441;DHT22;8330;-33.858;151.184;2023-01-15T03:22:26;28.40;99.90
16441;DHT22;8330;-33.858;151.184;2023-01-15T03:25:02;28.40;99.90
16441;DHT22;8330;-33.858;151.184;2023-01-15T03:27:33;28.40;99.90
16441;DHT22;8330;-33.858;151.184;2023-01-15T03:30:08;28.50;99.90
16441;DHT22;8330;-33.858;151.184;2023-01-15T03:32:41;28.70;99.90
16441;DHT22;8330;-33.858;151.184;2023-01-15T03:38:26;28.80;99.90
16441;DHT22;8330;-33.858;151.184;2023-01-15T03:41:05;28.80;99.90
16441;DHT22;8330;-33.858;151.184;2023-01-15T03:43:45;28.80;99.90
16441;DHT22;8330;-33.858;151.184;2023-01-15T03:46:32;28.90;99.90
16441;DHT22;8330;-33.858;151.184;2023-01-15T03:49:09;28.80;99.90
16441;DHT22;8330;-33.858;151.184;2023-01-15T03:51:47;28.90;99.90
16441;DHT22;8330;-33.858;151.184;2023-01-15T03:54:23;28.80;99.90
16441;DHT22;8330;-33.858;151.184;2023-01-15T03:57:00;28.80;99.90
16441;DHT22;8330;-33.858;151.184;2023-01-15T03:59:36;28.80;99.90
16441;DHT22;8330;-33.858;151.184;2023-01-15T04:02:12;28.80;99.90
16441;DHT22;8330;-33.858;151.184;2023-01-15T04:04:44;28.80;99.90
16441;DHT22;8330;-33.858;151.184;2023-01-15T04:07:17;28.80;99.90
16441;DHT22;8330;-33.858;151.184;2023-01-15T04:09:49;28.80;99.90
16441;DHT22;8330;-33.858;151.184;2023-01-15T04:12:20;28.80;99.90
16441;DHT22;8330;-33.858;151.184;2023-01-15T04:14:55;28.70;99.90
16441;DHT22;8330;-33.858;151.184;2023-01-15T04:17:35;28.80;99.90
16441;DHT22;8330;-33.858;151.184;2023-01-15T04:20:06;28.80;99.90
16441;DHT22;8330;-33.858;151.184;2023-01-15T04:22:38;28.90;99.90
16441;DHT22;8330;-33.858;151.184;2023-01-15T04:25:13;29.00;99.90
16441;DHT22;8330;-33.858;151.184;2023-01-15T04:27:44;29.10;99.90
16441;DHT22;8330;-33.858;151.184;2023-01-15T04:30:17;29.20;99.90
16441;DHT22;8330;-33.858;151.184;2023-01-15T04:32:51;29.30;99.90
16441;DHT22;8330;-33.858;151.184;2023-01-15T04:35:24;29.50;99.90
16441;DHT22;8330;-33.858;151.184;2023-01-15T04:37:59;29.60;99.90
16441;DHT22;8330;-33.858;151.184;2023-01-15T04:40:31;29.70;99.90
16441;DHT22;8330;-33.858;151.184;2023-01-15T04:43:14;29.70;99.90
16441;DHT22;8330;-33.858;151.184;2023-01-15T04:46:02;29.80;99.90
16441;DHT22;8330;-33.858;151.184;2023-01-15T04:48:35;29.80;99.90
16441;DHT22;8330;-33.858;151.184;2023-01-15T04:51:07;29.90;99.90
16441;DHT22;8330;-33.858;151.184;2023-01-15T04:53:37;30.00;99.90
16441;DHT22;8330;-33.858;151.184;2023-01-15T04:56:09;30.10;99.90
16441;DHT22;8330;-33.858;151.184;2023-01-15T04:58:39;30.00;99.90
16441;DHT22;8330;-33.858;151.184;2023-01-15T05:01:12;29.90;99.90
16441;DHT22;8330;-33.858;151.184;2023-01-15T05:03:46;30.10;99.90
16441;DHT22;8330;-33.858;151.184;2023-01-15T05:06:20;30.10;99.90
16441;DHT22;8330;-33.858;151.184;2023-01-15T05:08:52;30.30;99.90
16441;DHT22;8330;-33.858;151.184;2023-01-15T05:11:24;30.40;99.90
16441;DHT22;8330;-33.858;151.184;2023-01-15T05:13:55;30.60;99.90
16441;DHT22;8330;-33.858;151.184;2023-01-15T05:16:28;30.70;99.90
16441;DHT22;8330;-33.858;151.184;2023-01-15T05:19:02;30.80;99.90
16441;DHT22;8330;-33.858;151.184;2023-01-15T05:21:36;30.90;99.90
16441;DHT22;8330;-33.858;151.184;2023-01-15T05:24:07;31.00;99.90
16441;DHT22;8330;-33.858;151.184;2023-01-15T05:26:40;31.00;99.90
16441;DHT22;8330;-33.858;151.184;2023-01-15T05:29:12;31.00;99.90
16441;DHT22;8330;-33.858;151.184;2023-01-15T05:31:43;31.00;99.90
16441;DHT22;8330;-33.858;151.184;2023-01-15T05:34:17;31.00;99.90
16441;DHT22;8330;-33.858;151.184;2023-01-15T05:36:48;31.00;99.90
16441;DHT22;8330;-33.858;151.184;2023-01-15T05:39:21;30.90;99.90
16441;DHT22;8330;-33.858;151.184;2023-01-15T05:41:52;31.00;99.90
16441;DHT22;8330;-33.858;151.184;2023-01-15T05:44:24;31.10;99.90
16441;DHT22;8330;-33.858;151.184;2023-01-15T05:46:59;31.30;99.90
16441;DHT22;8330;-33.858;151.184;2023-01-15T05:49:36;31.30;99.90
16441;DHT22;8330;-33.858;151.184;2023-01-15T05:52:07;31.40;99.90
16441;DHT22;8330;-33.858;151.184;2023-01-15T05:54:38;31.70;99.90
16441;DHT22;8330;-33.858;151.184;2023-01-15T05:57:11;31.70;99.90
16441;DHT22;8330;-33.858;151.184;2023-01-15T05:59:42;31.70;99.90
16441;DHT22;8330;-33.858;151.184;2023-01-15T06:02:13;31.70;99.90
16441;DHT22;8330;-33.858;151.184;2023-01-15T06:04:46;31.70;99.90
16441;DHT22;8330;-33.858;151.184;2023-01-15T06:07:17;32.10;99.90
16441;DHT22;8330;-33.858;151.184;2023-01-15T06:09:48;32.20;99.90
16441;DHT22;8330;-33.858;151.184;2023-01-15T06:12:19;32.50;99.90
16441;DHT22;8330;-33.858;151.184;2023-01-15T06:14:50;32.60;99.90
16441;DHT22;8330;-33.858;151.184;2023-01-15T06:17:21;32.90;99.90
16441;DHT22;8330;-33.858;151.184;2023-01-15T06:19:54;32.80;99.90
16441;DHT22;8330;-33.858;151.184;2023-01-15T06:22:25;33.10;99.90
16441;DHT22;8330;-33.858;151.184;2023-01-15T06:24:56;33.10;99.90
16441;DHT22;8330;-33.858;151.184;2023-01-15T06:27:28;33.40;99.90
16441;DHT22;8330;-33.858;151.184;2023-01-15T06:29:58;33.40;99.90
16441;DHT22;8330;-33.858;151.184;2023-01-15T06:32:30;33.50;99.90
16441;DHT22;8330;-33.858;151.184;2023-01-15T06:35:03;33.40;99.90
16441;DHT22;8330;-33.858;151.184;2023-01-15T06:37:34;33.40;99.90
16441;DHT22;8330;-33.858;151.184;2023-01-15T06:40:06;33.30;99.90
16441;DHT22;8330;-33.858;151.184;2023-01-15T06:42:37;33.40;99.90
16441;DHT22;8330;-33.858;151.184;2023-01-15T06:45:24;33.60;99.90
16441;DHT22;8330;-33.858;151.184;2023-01-15T06:48:10;33.80;99.90
16441;DHT22;8330;-33.858;151.184;2023-01-15T06:50:45;33.90;99.90
16441;DHT22;8330;-33.858;151.184;2023-01-15T06:53:16;34.00;99.90
16441;DHT22;8330;-33.858;151.184;2023-01-15T06:55:47;34.10;99.90
16441;DHT22;8330;-33.858;151.184;2023-01-15T06:58:19;34.40;99.90
16441;DHT22;8330;-33.858;151.184;2023-01-15T07:00:51;34.60;99.00
16441;DHT22;8330;-33.858;151.184;2023-01-15T07:03:23;34.80;98.20
16441;DHT22;8330;-33.858;151.184;2023-01-15T07:05:56;35.20;96.20
16441;DHT22;8330;-33.858;151.184;2023-01-15T07:08:27;35.40;94.70
16441;DHT22;8330;-33.858;151.184;2023-01-15T07:11:03;35.20;92.90
16441;DHT22;8330;-33.858;151.184;2023-01-15T07:13:34;35.30;93.00
16441;DHT22;8330;-33.858;151.184;2023-01-15T07:16:06;35.30;94.00
16441;DHT22;8330;-33.858;151.184;2023-01-15T07:18:54;35.30;93.40
16441;DHT22;8330;-33.858;151.184;2023-01-15T07:21:28;35.40;92.30
16441;DHT22;8330;-33.858;151.184;2023-01-15T07:23:59;35.30;91.90
16441;DHT22;8330;-33.858;151.184;2023-01-15T07:26:30;35.30;92.40
16441;DHT22;8330;-33.858;151.184;2023-01-15T07:29:02;35.40;91.70
16441;DHT22;8330;-33.858;151.184;2023-01-15T07:31:34;35.30;92.90
16441;DHT22;8330;-33.858;151.184;2023-01-15T07:34:05;35.40;92.10
16441;DHT22;8330;-33.858;151.184;2023-01-15T07:36:38;35.00;91.30
16441;DHT22;8330;-33.858;151.184;2023-01-15T07:39:10;34.10;93.60
16441;DHT22;8330;-33.858;151.184;2023-01-15T07:41:41;33.10;96.30
16441;DHT22;8330;-33.858;151.184;2023-01-15T07:44:27;32.30;99.90
16441;DHT22;8330;-33.858;151.184;2023-01-15T07:47:29;31.50;99.90
16441;DHT22;8330;-33.858;151.184;2023-01-15T07:50:16;30.80;99.90
16441;DHT22;8330;-33.858;151.184;2023-01-15T07:52:50;30.40;99.90
16441;DHT22;8330;-33.858;151.184;2023-01-15T07:55:22;30.00;99.90
16441;DHT22;8330;-33.858;151.184;2023-01-15T07:57:54;29.70;99.90
16441;DHT22;8330;-33.858;151.184;2023-01-15T08:00:25;29.40;99.90
16441;DHT22;8330;-33.858;151.184;2023-01-15T08:02:56;29.00;99.90
16441;DHT22;8330;-33.858;151.184;2023-01-15T08:05:29;28.80;99.90
16441;DHT22;8330;-33.858;151.184;2023-01-15T08:08:02;28.50;99.90
16441;DHT22;8330;-33.858;151.184;2023-01-15T08:10:34;28.40;99.90
16441;DHT22;8330;-33.858;151.184;2023-01-15T08:13:22;28.20;99.90
16441;DHT22;8330;-33.858;151.184;2023-01-15T08:16:11;28.10;99.90
16441;DHT22;8330;-33.858;151.184;2023-01-15T08:18:49;27.90;99.90
16441;DHT22;8330;-33.858;151.184;2023-01-15T08:21:36;27.80;99.90
16441;DHT22;8330;-33.858;151.184;2023-01-15T08:24:10;27.80;99.90
16441;DHT22;8330;-33.858;151.184;2023-01-15T08:26:52;27.70;99.90
16441;DHT22;8330;-33.858;151.184;2023-01-15T08:29:37;27.70;99.90
16441;DHT22;8330;-33.858;151.184;2023-01-15T08:32:08;27.70;99.90
16441;DHT22;8330;-33.858;151.184;2023-01-15T08:34:44;27.70;99.90
16441;DHT22;8330;-33.858;151.184;2023-01-15T08:37:16;27.60;99.90
16441;DHT22;8330;-33.858;151.184;2023-01-15T08:39:51;27.50;99.90
16441;DHT22;8330;-33.858;151.184;2023-01-15T08:42:28;27.50;99.90
16441;DHT22;8330;-33.858;151.184;2023-01-15T08:45:12;27.30;99.90
16441;DHT22;8330;-33.858;151.184;2023-01-15T08:47:43;27.30;99.90
16441;DHT22;8330;-33.858;151.184;2023-01-15T08:50:27;27.30;99.90
16441;DHT22;8330;-33.858;151.184;2023-01-15T08:55:58;27.20;99.90
16441;DHT22;8330;-33.858;151.184;2023-01-15T09:01:06;27.20;99.90
16441;DHT22;8330;-33.858;151.184;2023-01-15T09:03:41;27.20;99.90
16441;DHT22;8330;-33.858;151.184;2023-01-15T09:06:15;27.10;99.90
16441;DHT22;8330;-33.858;151.184;2023-01-15T09:08:46;27.00;99.90
16441;DHT22;8330;-33.858;151.184;2023-01-15T09:11:18;26.90;99.90
16441;DHT22;8330;-33.858;151.184;2023-01-15T09:13:49;26.90;99.90
16441;DHT22;8330;-33.858;151.184;2023-01-15T09:16:22;26.90;99.90
16441;DHT22;8330;-33.858;151.184;2023-01-15T09:18:54;26.90;99.90
16441;DHT22;8330;-33.858;151.184;2023-01-15T09:21:25;26.80;99.90
16441;DHT22;8330;-33.858;151.184;2023-01-15T09:23:56;26.80;99.90
16441;DHT22;8330;-33.858;151.184;2023-01-15T09:26:33;26.80;99.90
16441;DHT22;8330;-33.858;151.184;2023-01-15T09:29:05;26.80;99.90
16441;DHT22;8330;-33.858;151.184;2023-01-15T09:31:37;26.80;99.90
16441;DHT22;8330;-33.858;151.184;2023-01-15T09:34:09;26.80;99.90
16441;DHT22;8330;-33.858;151.184;2023-01-15T09:36:40;26.80;99.90
16441;DHT22;8330;-33.858;151.184;2023-01-15T09:39:13;26.70;99.90
16441;DHT22;8330;-33.858;151.184;2023-01-15T09:42:08;26.70;99.90
16441;DHT22;8330;-33.858;151.184;2023-01-15T09:44:57;26.70;99.90
16441;DHT22;8330;-33.858;151.184;2023-01-15T09:47:35;26.70;99.90
16441;DHT22;8330;-33.858;151.184;2023-01-15T09:50:25;26.60;99.90
16441;DHT22;8330;-33.858;151.184;2023-01-15T09:53:25;26.60;99.90
16441;DHT22;8330;-33.858;151.184;2023-01-15T09:56:02;26.60;99.90
16441;DHT22;8330;-33.858;151.184;2023-01-15T09:58:37;26.60;99.90
16441;DHT22;8330;-33.858;151.184;2023-01-15T10:01:14;26.60;99.90
16441;DHT22;8330;-33.858;151.184;2023-01-15T10:03:51;26.50;99.90
16441;DHT22;8330;-33.858;151.184;2023-01-15T10:06:26;26.40;99.90
16441;DHT22;8330;-33.858;151.184;2023-01-15T10:09:05;26.30;99.90
16441;DHT22;8330;-33.858;151.184;2023-01-15T10:12:01;26.30;99.90
16441;DHT22;8330;-33.858;151.184;2023-01-15T10:15:21;26.40;99.90
16441;DHT22;8330;-33.858;151.184;2023-01-15T10:17:59;26.40;99.90
16441;DHT22;8330;-33.858;151.184;2023-01-15T10:21:14;26.40;99.90
16441;DHT22;8330;-33.858;151.184;2023-01-15T10:24:00;26.30;99.90
16441;DHT22;8330;-33.858;151.184;2023-01-15T10:31:49;26.30;99.90
16441;DHT22;8330;-33.858;151.184;2023-01-15T10:34:48;26.30;99.90
16441;DHT22;8330;-33.858;151.184;2023-01-15T10:37:49;26.30;99.90
16441;DHT22;8330;-33.858;151.184;2023-01-15T10:40:58;26.30;99.90
16441;DHT22;8330;-33.858;151.184;2023-01-15T10:43:50;26.30;99.90
16441;DHT22;8330;-33.858;151.184;2023-01-15T10:46:48;26.30;99.90
16441;DHT22;8330;-33.858;151.184;2023-01-15T10:49:49;26.30;99.90
16441;DHT22;8330;-33.858;151.184;2023-01-15T10:52:24;26.30;99.90
16441;DHT22;8330;-33.858;151.184;2023-01-15T10:55:03;26.20;99.90
16441;DHT22;8330;-33.858;151.184;2023-01-15T10:57:43;26.20;99.90
16441;DHT22;8330;-33.858;151.184;2023-01-15T11:00:18;26.20;99.90
16441;DHT22;8330;-33.858;151.184;2023-01-15T11:02:57;26.10;99.90
16441;DHT22;8330;-33.858;151.184;2023-01-15T11:05:33;26.10;99.90
16441;DHT22;8330;-33.858;151.184;2023-01-15T11:08:09;26.10;99.90
16441;DHT22;8330;-33.858;151.184;2023-01-15T11:10:42;26.10;99.90
16441;DHT22;8330;-33.858;151.184;2023-01-15T11:13:19;26.10;99.90
16441;DHT22;8330;-33.858;151.184;2023-01-15T11:16:13;26.10;99.90
16441;DHT22;8330;-33.858;151.184;2023-01-15T11:19:09;26.10;99.90
16441;DHT22;8330;-33.858;151.184;2023-01-15T11:22:07;26.00;99.90
16441;DHT22;8330;-33.858;151.184;2023-01-15T11:24:48;25.90;99.90
16441;DHT22;8330;-33.858;151.184;2023-01-15T11:27:21;26.00;99.90
16441;DHT22;8330;-33.858;151.184;2023-01-15T11:29:56;25.80;99.90
16441;DHT22;8330;-33.858;151.184;2023-01-15T11:32:30;25.80;99.90
16441;DHT22;8330;-33.858;151.184;2023-01-15T11:35:13;25.80;99.90
16441;DHT22;8330;-33.858;151.184;2023-01-15T11:37:47;25.80;99.90
16441;DHT22;8330;-33.858;151.184;2023-01-15T11:40:20;25.90;99.90
16441;DHT22;8330;-33.858;151.184;2023-01-15T11:42:52;25.90;99.90
16441;DHT22;8330;-33.858;151.184;2023-01-15T11:45:47;25.90;99.90
16441;DHT22;8330;-33.858;151.184;2023-01-15T11:48:44;25.80;99.90
16441;DHT22;8330;-33.858;151.184;2023-01-15T11:51:32;25.80;99.90
16441;DHT22;8330;-33.858;151.184;2023-01-15T11:54:12;25.80;99.90
16441;DHT22;8330;-33.858;151.184;2023-01-15T11:56:47;25.80;99.90
16441;DHT22;8330;-33.858;151.184;2023-01-15T11:59:19;25.80;99.90
16441;DHT22;8330;-33.858;151.184;2023-01-15T12:01:53;25.70;99.90
16441;DHT22;8330;-33.858;151.184;2023-01-15T12:04:40;25.80;99.90
16441;DHT22;8330;-33.858;151.184;2023-01-15T12:07:18;25.70;99.90
16441;DHT22;8330;-33.858;151.184;2023-01-15T12:10:06;25.70;99.90
16441;DHT22;8330;-33.858;151.184;2023-01-15T12:12:57;25.70;99.90
16441;DHT22;8330;-33.858;151.184;2023-01-15T12:15:39;25.70;99.90
16441;DHT22;8330;-33.858;151.184;2023-01-15T12:18:26;25.60;99.90
16441;DHT22;8330;-33.858;151.184;2023-01-15T12:21:03;25.60;99.90
16441;DHT22;8330;-33.858;151.184;2023-01-15T12:23:52;25.60;99.90
16441;DHT22;8330;-33.858;151.184;2023-01-15T12:26:32;25.60;99.90
16441;DHT22;8330;-33.858;151.184;2023-01-15T12:29:10;25.60;99.90
16441;DHT22;8330;-33.858;151.184;2023-01-15T12:31:45;25.50;99.90
16441;DHT22;8330;-33.858;151.184;2023-01-15T12:34:24;25.50;99.90
16441;DHT22;8330;-33.858;151.184;2023-01-15T12:36:58;25.50;99.90
16441;DHT22;8330;-33.858;151.184;2023-01-15T12:39:32;25.50;99.90
16441;DHT22;8330;-33.858;151.184;2023-01-15T12:42:10;25.50;99.90
16441;DHT22;8330;-33.858;151.184;2023-01-15T12:45:00;25.50;99.90
16441;DHT22;8330;-33.858;151.184;2023-01-15T12:47:40;25.50;99.90
16441;DHT22;8330;-33.858;151.184;2023-01-15T12:50:31;25.50;99.90
16441;DHT22;8330;-33.858;151.184;2023-01-15T12:53:12;25.50;99.90
16441;DHT22;8330;-33.858;151.184;2023-01-15T12:55:50;25.50;99.90
16441;DHT22;8330;-33.858;151.184;2023-01-15T13:01:12;25.50;99.90
16441;DHT22;8330;-33.858;151.184;2023-01-15T13:04:05;25.40;99.90
16441;DHT22;8330;-33.858;151.184;2023-01-15T13:06:43;25.40;99.90
16441;DHT22;8330;-33.858;151.184;2023-01-15T13:09:25;25.40;99.90
16441;DHT22;8330;-33.858;151.184;2023-01-15T13:11:58;25.40;99.90
16441;DHT22;8330;-33.858;151.184;2023-01-15T13:16:59;25.30;99.90
16441;DHT22;8330;-33.858;151.184;2023-01-15T13:19:39;25.30;99.90
16441;DHT22;8330;-33.858;151.184;2023-01-15T13:22:15;25.30;99.90
16441;DHT22;8330;-33.858;151.184;2023-01-15T13:25:07;25.30;99.90
16441;DHT22;8330;-33.858;151.184;2023-01-15T13:27:58;25.20;99.90
16441;DHT22;8330;-33.858;151.184;2023-01-15T13:30:42;25.30;99.90
16441;DHT22;8330;-33.858;151.184;2023-01-15T13:33:25;25.20;99.90
16441;DHT22;8330;-33.858;151.184;2023-01-15T13:36:03;25.30;99.90
16441;DHT22;8330;-33.858;151.184;2023-01-15T13:38:39;25.20;99.90
16441;DHT22;8330;-33.858;151.184;2023-01-15T13:41:16;25.20;99.90
16441;DHT22;8330;-33.858;151.184;2023-01-15T13:44:17;25.20;99.90
16441;DHT22;8330;-33.858;151.184;2023-01-15T13:46:57;25.30;99.90
16441;DHT22;8330;-33.858;151.184;2023-01-15T13:49:36;25.20;99.90
16441;DHT22;8330;-33.858;151.184;2023-01-15T13:52:22;25.20;99.90
16441;DHT22;8330;-33.858;151.184;2023-01-15T13:54:55;25.20;99.90
16441;DHT22;8330;-33.858;151.184;2023-01-15T13:57:34;25.20;99.90
16441;DHT22;8330;-33.858;151.184;2023-01-15T14:00:06;25.20;99.90
16441;DHT22;8330;-33.858;151.184;2023-01-15T14:02:49;25.20;99.90
16441;DHT22;8330;-33.858;151.184;2023-01-15T14:05:31;25.20;99.90
16441;DHT22;8330;-33.858;151.184;2023-01-15T14:08:15;25.20;99.90
16441;DHT22;8330;-33.858;151.184;2023-01-15T14:10:46;25.10;99.90
16441;DHT22;8330;-33.858;151.184;2023-01-15T14:13:44;25.10;99.90
16441;DHT22;8330;-33.858;151.184;2023-01-15T14:16:35;25.10;99.90
16441;DHT22;8330;-33.858;151.184;2023-01-15T14:19:55;25.10;99.90
16441;DHT22;8330;-33.858;151.184;2023-01-15T14:22:48;25.00;99.90
16441;DHT22;8330;-33.858;151.184;2023-01-15T14:25:42;25.00;99.90
16441;DHT22;8330;-33.858;151.184;2023-01-15T14:28:30;25.00;99.90
16441;DHT22;8330;-33.858;151.184;2023-01-15T14:34:15;25.10;99.90
16441;DHT22;8330;-33.858;151.184;2023-01-15T14:36:51;25.00;99.90
16441;DHT22;8330;-33.858;151.184;2023-01-15T14:39:40;25.00;99.90
16441;DHT22;8330;-33.858;151.184;2023-01-15T14:42:15;25.00;99.90
16441;DHT22;8330;-33.858;151.184;2023-01-15T14:45:16;25.00;99.90
16441;DHT22;8330;-33.858;151.184;2023-01-15T14:47:49;25.00;99.90
16441;DHT22;8330;-33.858;151.184;2023-01-15T14:50:33;25.10;99.90
16441;DHT22;8330;-33.858;151.184;2023-01-15T14:53:28;25.10;99.90
16441;DHT22;8330;-33.858;151.184;2023-01-15T14:56:11;25.10;99.90
16441;DHT22;8330;-33.858;151.184;2023-01-15T14:58:50;25.10;99.90
16441;DHT22;8330;-33.858;151.184;2023-01-15T15:01:37;25.10;99.90
16441;DHT22;8330;-33.858;151.184;2023-01-15T15:04:23;25.10;99.90
16441;DHT22;8330;-33.858;151.184;2023-01-15T15:06:59;25.10;99.90
16441;DHT22;8330;-33.858;151.184;2023-01-15T15:09:35;25.10;99.90
16441;DHT22;8330;-33.858;151.184;2023-01-15T15:12:27;25.10;99.90
16441;DHT22;8330;-33.858;151.184;2023-01-15T15:15:05;25.10;99.90
16441;DHT22;8330;-33.858;151.184;2023-01-15T15:17:43;25.10;99.90
16441;DHT22;8330;-33.858;151.184;2023-01-15T15:20:25;25.00;99.90
16441;DHT22;8330;-33.858;151.184;2023-01-15T15:23:03;25.00;99.90
16441;DHT22;8330;-33.858;151.184;2023-01-15T15:25:38;25.00;99.90
16441;DHT22;8330;-33.858;151.184;2023-01-15T15:28:12;25.00;99.90
16441;DHT22;8330;-33.858;151.184;2023-01-15T15:30:44;25.00;99.90
16441;DHT22;8330;-33.858;151.184;2023-01-15T15:33:18;25.00;99.90
16441;DHT22;8330;-33.858;151.184;2023-01-15T15:35:51;25.00;99.90
16441;DHT22;8330;-33.858;151.184;2023-01-15T15:38:24;24.90;99.90
16441;DHT22;8330;-33.858;151.184;2023-01-15T15:40:56;24.90;99.90
16441;DHT22;8330;-33.858;151.184;2023-01-15T15:43:38;24.90;99.90
16441;DHT22;8330;-33.858;151.184;2023-01-15T15:46:29;24.90;99.90
16441;DHT22;8330;-33.858;151.184;2023-01-15T15:49:16;24.90;99.90
16441;DHT22;8330;-33.858;151.184;2023-01-15T15:51:51;24.90;99.90
16441;DHT22;8330;-33.858;151.184;2023-01-15T15:54:23;24.90;99.90
16441;DHT22;8330;-33.858;151.184;2023-01-15T15:56:59;24.80;99.90
16441;DHT22;8330;-33.858;151.184;2023-01-15T15:59:37;24.90;99.90
16441;DHT22;8330;-33.858;151.184;2023-01-15T16:02:15;24.90;99.90
16441;DHT22;8330;-33.858;151.184;2023-01-15T16:04:47;24.90;99.90
16441;DHT22;8330;-33.858;151.184;2023-01-15T16:07:22;24.80;99.90
16441;DHT22;8330;-33.858;151.184;2023-01-15T16:09:57;24.80;99.90
16441;DHT22;8330;-33.858;151.184;2023-01-15T16:12:30;24.80;99.90
16441;DHT22;8330;-33.858;151.184;2023-01-15T16:15:05;24.80;99.90
16441;DHT22;8330;-33.858;151.184;2023-01-15T16:17:38;24.80;99.90
16441;DHT22;8330;-33.858;151.184;2023-01-15T16:20:14;24.80;99.90
16441;DHT22;8330;-33.858;151.184;2023-01-15T16:22:46;24.70;99.90
16441;DHT22;8330;-33.858;151.184;2023-01-15T16:25:25;24.70;99.90
16441;DHT22;8330;-33.858;151.184;2023-01-15T16:27:57;24.70;99.90